Time;durP1;ratioP1;P1;durP2;ratioP2;P2;SDS_P1;SDS_P2;PMS_P1;PMS_P2;Temp;Humidity;BMP_temperature;BMP_pressure;BME280_temperature;BME280_humidity;BME280_pressure;Samples;Min_cycle;Max_cycle;Signal;HPM_P1;HPM_P2
2023/07/03 00:00:35;;;;;;;0.00;0.00;;;16.20;99.90;;;;;;5127111;27;20092;-67
2023/07/03 00:03:02;;;;;;;0.47;0.30;;;16.20;99.90;;;;;;5132722;27;20039;-67
2023/07/03 00:05:28;;;;;;;0.10;0.10;;;16.20;99.90;;;;;;5147782;27;20035;-67
2023/07/03 00:07:53;;;;;;;0.00;0.00;;;16.20;99.90;;;;;;5138768;27;20042;-67
2023/07/03 00:10:22;;;;;;;0.00;0.00;;;16.20;99.90;;;;;;5139699;27;20409;-67
2023/07/03 00:12:48;;;;;;;0.00;0.00;;;16.30;99.90;;;;;;5139446;27;20456;-68
2023/07/03 00:15:15;;;;;;;2.72;0.95;;;16.30;99.90;;;;;;5131617;27;20042;-67
2023/07/03 00:17:44;;;;;;;0.00;0.00;;;16.20;99.90;;;;;;5139176;27;20046;-67
2023/07/03 00:20:13;;;;;;;0.13;0.13;;;16.20;99.90;;;;;;5147535;27;21477;-67
2023/07/03 00:22:40;;;;;;;0.85;0.85;;;16.30;99.90;;;;;;5141585;27;20096;-67
2023/07/03 00:25:06;;;;;;;3.58;1.17;;;16.30;99.90;;;;;;5140602;27;20498;-67
2023/07/03 00:27:32;;;;;;;0.00;0.00;;;16.30;99.90;;;;;;5139665;27;20047;-67
2023/07/03 00:29:58;;;;;;;2.30;1.67;;;16.30;99.90;;;;;;5130831;27;20671;-67
2023/07/03 00:32:24;;;;;;;0.65;0.38;;;16.30;99.90;;;;;;5139720;27;20175;-67
2023/07/03 00:34:49;;;;;;;0.05;0.05;;;16.40;99.90;;;;;;5137668;27;20089;-67
2023/07/03 00:37:15;;;;;;;1.77;1.65;;;16.40;99.90;;;;;;5142109;27;20178;-67
2023/07/03 00:39:41;;;;;;;0.20;0.20;;;16.40;99.90;;;;;;5145966;27;20130;-67
2023/07/03 00:42:07;;;;;;;0.00;0.00;;;16.40;99.90;;;;;;5123272;28;20375;-68
2023/07/03 00:44:32;;;;;;;0.00;0.00;;;16.30;99.90;;;;;;5139474;27;20144;-67
2023/07/03 00:46:58;;;;;;;1.75;1.45;;;16.30;99.90;;;;;;5148436;27;20042;-67
2023/07/03 00:49:25;;;;;;;0.00;0.00;;;16.30;99.90;;;;;;5139333;27;20119;-67
2023/07/03 00:51:54;;;;;;;0.00;0.00;;;16.30;99.90;;;;;;5143438;27;20031;-67
2023/07/03 00:54:20;;;;;;;0.00;0.00;;;16.40;99.90;;;;;;5143780;27;20034;-67
2023/07/03 00:56:46;;;;;;;0.00;0.00;;;16.40;99.90;;;;;;5125408;27;20054;-67
2023/07/03 00:59:12;;;;;;;0.25;0.25;;;16.40;99.90;;;;;;5148267;27;20035;-68
2023/07/03 01:01:46;;;;;;;0.00;0.00;;;16.40;99.90;;;;;;5144847;27;20082;-67
2023/07/03 01:04:21;;;;;;;;;;;16.40;99.90;;;;;;5150817;27;20042;-67
2023/07/03 01:07:00;;;;;;;0.30;0.30;;;16.40;99.90;;;;;;5125711;27;20366;-67
2023/07/03 01:09:34;;;;;;;0.00;0.00;;;16.30;99.90;;;;;;5140355;27;20042;-67
2023/07/03 01:12:00;;;;;;;0.00;0.00;;;16.30;99.90;;;;;;5130963;27;20042;-67
2023/07/03 01:14:28;;;;;;;0.28;0.28;;;16.30;99.90;;;;;;5141870;27;20047;-67
2023/07/03 01:16:56;;;;;;;0.20;0.20;;;16.20;99.90;;;;;;5143700;27;20056;-67
2023/07/03 01:19:29;;;;;;;0.20;0.20;;;16.20;99.90;;;;;;5127560;27;20036;-67
2023/07/03 01:22:19;;;;;;;0.00;0.00;;;16.20;99.90;;;;;;5143280;27;20431;-67
2023/07/03 01:24:50;;;;;;;0.00;0.00;;;16.10;99.90;;;;;;5118171;27;20039;-67
2023/07/03 01:27:22;;;;;;;3.17;1.48;;;16.10;99.90;;;;;;5145205;27;20501;-67
2023/07/03 01:29:50;;;;;;;0.00;0.00;;;16.10;99.90;;;;;;5143616;27;20046;-67
2023/07/03 01:32:22;;;;;;;0.00;0.00;;;16.10;99.90;;;;;;5143514;27;20138;-67
2023/07/03 01:34:50;;;;;;;0.25;0.25;;;16.00;99.90;;;;;;5148230;27;20136;-67
2023/07/03 01:37:17;;;;;;;0.00;0.00;;;16.00;99.90;;;;;;5148925;27;20150;-67
2023/07/03 01:39:44;;;;;;;0.20;0.20;;;15.90;99.90;;;;;;5150722;27;20027;-67
2023/07/03 01:42:11;;;;;;;0.65;0.65;;;15.90;99.90;;;;;;5125475;27;20061;-67
2023/07/03 01:44:37;;;;;;;3.38;2.05;;;15.80;99.90;;;;;;5149359;27;20045;-67
2023/07/03 01:47:04;;;;;;;0.30;0.30;;;15.80;99.90;;;;;;5138792;27;20034;-67
2023/07/03 01:49:30;;;;;;;0.00;0.00;;;15.80;99.90;;;;;;5149174;27;20087;-67
2023/07/03 01:52:20;;;;;;;0.00;0.00;;;15.80;99.90;;;;;;5151543;27;20429;-67
2023/07/03 01:55:14;;;;;;;0.20;0.20;;;15.70;99.90;;;;;;5145551;27;20054;-67
2023/07/03 01:57:47;;;;;;;0.00;0.00;;;15.70;99.90;;;;;;5129271;27;20043;-67
2023/07/03 02:00:25;;;;;;;2.83;1.05;;;15.60;99.90;;;;;;5148703;27;20130;-67
2023/07/03 02:02:53;;;;;;;0.20;0.20;;;15.60;99.90;;;;;;5147643;27;20570;-67
2023/07/03 02:05:26;;;;;;;0.00;0.00;;;15.60;99.90;;;;;;5141577;27;20062;-67
2023/07/03 02:07:57;;;;;;;1.10;1.10;;;15.60;99.90;;;;;;5148220;27;20043;-67
2023/07/03 02:10:23;;;;;;;0.10;0.10;;;15.60;99.90;;;;;;5149769;27;20596;-67
2023/07/03 02:12:48;;;;;;;0.10;0.10;;;15.50;99.90;;;;;;5142100;27;20035;-67
2023/07/03 02:15:15;;;;;;;0.00;0.00;;;15.50;99.90;;;;;;5142779;27;20034;-67
2023/07/03 02:17:41;;;;;;;0.03;0.03;;;15.50;99.90;;;;;;5148387;27;20050;-67
2023/07/03 02:20:14;;;;;;;0.40;0.40;;;15.50;99.90;;;;;;5146316;27;20058;-67
2023/07/03 02:22:41;;;;;;;0.70;0.70;;;15.50;99.90;;;;;;5124465;27;20074;-67
2023/07/03 02:25:07;;;;;;;0.10;0.10;;;15.40;99.90;;;;;;5150200;27;20074;-67
2023/07/03 02:27:33;;;;;;;0.00;0.00;;;15.40;99.90;;;;;;5151938;27;20908;-67
2023/07/03 02:29:59;;;;;;;0.10;0.10;;;15.40;99.90;;;;;;5142548;27;20034;-67
2023/07/03 02:32:35;;;;;;;0.03;0.03;;;15.40;99.90;;;;;;5126964;27;20137;-67
2023/07/03 02:35:02;;;;;;;0.10;0.10;;;15.30;99.90;;;;;;5150744;27;20563;-67
2023/07/03 02:37:27;;;;;;;0.85;0.57;;;15.30;99.90;;;;;;5139165;27;20039;-66
2023/07/03 02:39:53;;;;;;;0.00;0.00;;;15.30;99.90;;;;;;5144633;27;20111;-67
2023/07/03 02:42:18;;;;;;;0.00;0.00;;;15.20;99.90;;;;;;5148500;27;20057;-67
2023/07/03 02:44:44;;;;;;;0.60;0.60;;;15.30;99.90;;;;;;5143292;27;20131;-67
2023/07/03 02:47:10;;;;;;;0.03;0.03;;;15.20;99.90;;;;;;5145824;27;20157;-67
2023/07/03 02:49:35;;;;;;;0.00;0.00;;;15.20;99.90;;;;;;5121926;27;20031;-67
2023/07/03 02:52:01;;;;;;;0.00;0.00;;;15.20;99.90;;;;;;5144365;27;20100;-67
2023/07/03 02:54:27;;;;;;;0.00;0.00;;;15.20;99.90;;;;;;5151033;27;20091;-67
2023/07/03 02:56:52;;;;;;;0.00;0.00;;;15.20;99.90;;;;;;5138646;27;20043;-67
2023/07/03 02:59:18;;;;;;;0.00;0.00;;;15.20;99.90;;;;;;5124649;27;20043;-67
2023/07/03 03:01:44;;;;;;;0.73;0.73;;;15.10;99.90;;;;;;5147508;27;20078;-67
2023/07/03 03:04:10;;;;;;;0.00;0.00;;;15.10;99.90;;;;;;5151223;27;20034;-67
2023/07/03 03:06:36;;;;;;;1.00;0.73;;;15.10;99.90;;;;;;5122528;27;20122;-67
2023/07/03 03:09:02;;;;;;;0.10;0.10;;;15.10;99.90;;;;;;5128905;27;20039;-67
2023/07/03 03:11:28;;;;;;;2.13;1.00;;;15.00;99.90;;;;;;5138287;27;20050;-67
2023/07/03 03:13:53;;;;;;;0.75;0.55;;;15.10;99.90;;;;;;5140724;27;20031;-67
2023/07/03 03:16:19;;;;;;;0.00;0.00;;;15.00;99.90;;;;;;5149595;27;20379;-67
2023/07/03 03:18:47;;;;;;;0.10;0.10;;;15.00;99.90;;;;;;5149843;27;20042;-67
2023/07/03 03:21:15;;;;;;;0.00;0.00;;;15.00;99.90;;;;;;5147271;27;20055;-67
2023/07/03 03:23:41;;;;;;;0.00;0.00;;;15.00;99.90;;;;;;5149766;27;20046;-67
2023/07/03 03:26:07;;;;;;;0.08;0.08;;;15.00;99.90;;;;;;5146821;27;20402;-67
2023/07/03 03:28:33;;;;;;;0.00;0.00;;;15.00;99.90;;;;;;5147457;27;20053;-67
2023/07/03 03:30:59;;;;;;;0.10;0.10;;;15.00;99.90;;;;;;5141955;27;20038;-67
2023/07/03 03:33:25;;;;;;;0.00;0.00;;;15.00;99.90;;;;;;5148148;27;20061;-67
2023/07/03 03:35:50;;;;;;;0.00;0.00;;;15.00;99.90;;;;;;5143969;27;20035;-67
2023/07/03 03:38:16;;;;;;;0.00;0.00;;;15.00;99.90;;;;;;5150374;27;20537;-67
2023/07/03 03:40:52;;;;;;;0.22;0.22;;;15.00;99.90;;;;;;5147410;27;20092;-67
2023/07/03 03:43:17;;;;;;;0.00;0.00;;;14.90;99.90;;;;;;5139474;27;20126;-67
2023/07/03 03:45:43;;;;;;;1.85;1.27;;;14.90;99.90;;;;;;5149097;27;20186;-67
2023/07/03 03:48:08;;;;;;;0.00;0.00;;;14.90;99.90;;;;;;5150109;27;20421;-67
2023/07/03 03:50:34;;;;;;;0.25;0.25;;;14.90;99.90;;;;;;5138704;27;20039;-67
2023/07/03 03:52:59;;;;;;;0.35;0.35;;;15.00;99.90;;;;;;5126081;27;20074;-67
2023/07/03 03:55:25;;;;;;;0.15;0.15;;;15.10;99.90;;;;;;5137954;27;20050;-67
2023/07/03 03:57:51;;;;;;;0.43;0.30;;;15.10;99.90;;;;;;5144226;27;20077;-67
2023/07/03 04:00:19;;;;;;;0.10;0.10;;;15.10;99.90;;;;;;5126243;27;20134;-67
2023/07/03 04:02:46;;;;;;;0.00;0.00;;;15.20;99.90;;;;;;5122205;27;20050;-67
2023/07/03 04:05:12;;;;;;;0.00;0.00;;;15.20;99.90;;;;;;5148165;27;20546;-67
2023/07/03 04:07:38;;;;;;;0.65;0.65;;;15.30;99.90;;;;;;5139428;27;20043;-67
2023/07/03 04:10:05;;;;;;;0.40;0.40;;;15.40;99.90;;;;;;5138847;27;20053;-67
2023/07/03 04:12:30;;;;;;;0.10;0.10;;;15.40;99.90;;;;;;5143596;27;20041;-67
2023/07/03 04:14:56;;;;;;;0.20;0.20;;;15.40;99.90;;;;;;5147808;27;20659;-67
2023/07/03 04:17:21;;;;;;;0.20;0.20;;;15.40;99.90;;;;;;5148897;27;20122;-67
2023/07/03 04:19:47;;;;;;;0.20;0.20;;;15.50;99.90;;;;;;5144957;27;20035;-67
2023/07/03 04:22:13;;;;;;;4.68;2.20;;;15.50;99.90;;;;;;5144623;27;20035;-67
2023/07/03 04:24:38;;;;;;;0.00;0.00;;;15.60;99.90;;;;;;5146983;27;20039;-67
2023/07/03 04:27:05;;;;;;;0.00;0.00;;;15.60;99.90;;;;;;5135171;27;20122;-67
2023/07/03 04:29:30;;;;;;;0.00;0.00;;;15.60;99.90;;;;;;5147306;27;20039;-67
2023/07/03 04:31:56;;;;;;;0.00;0.00;;;15.70;99.90;;;;;;5137533;27;20055;-67
2023/07/03 04:34:21;;;;;;;3.60;1.38;;;15.70;99.90;;;;;;5145173;27;20101;-67
2023/07/03 04:36:48;;;;;;;0.00;0.00;;;15.80;99.90;;;;;;5141640;27;20031;-67
2023/07/03 04:39:13;;;;;;;0.00;0.00;;;15.80;99.90;;;;;;5145284;27;20054;-67
2023/07/03 04:41:39;;;;;;;36.55;1.13;;;15.90;99.90;;;;;;5145863;27;20041;-67
2023/07/03 04:44:06;;;;;;;0.10;0.10;;;16.00;99.90;;;;;;5138892;27;20039;-67
2023/07/03 04:46:33;;;;;;;0.20;0.20;;;16.00;99.90;;;;;;5121825;27;20043;-67
2023/07/03 04:49:05;;;;;;;0.00;0.00;;;16.00;99.90;;;;;;5147023;27;20035;-67
2023/07/03 04:51:32;;;;;;;0.00;0.00;;;15.90;99.90;;;;;;5137440;27;20038;-67
2023/07/03 04:53:59;;;;;;;0.00;0.00;;;15.90;99.90;;;;;;5143931;27;20482;-67
2023/07/03 04:56:25;;;;;;;0.00;0.00;;;15.80;99.90;;;;;;5124492;27;20941;-67
2023/07/03 04:58:52;;;;;;;0.00;0.00;;;15.80;99.90;;;;;;5148188;27;20119;-67
2023/07/03 05:01:18;;;;;;;1.40;0.63;;;15.70;99.90;;;;;;5122414;27;20034;-67
2023/07/03 05:03:43;;;;;;;1.35;1.08;;;15.60;99.90;;;;;;5142786;27;20102;-67
2023/07/03 05:06:10;;;;;;;0.00;0.00;;;15.60;99.90;;;;;;5147944;27;20039;-67
2023/07/03 05:08:36;;;;;;;0.00;0.00;;;15.60;99.90;;;;;;5142747;27;20047;-67
2023/07/03 05:11:02;;;;;;;0.00;0.00;;;15.50;99.90;;;;;;5135293;27;20034;-67
2023/07/03 05:13:27;;;;;;;0.00;0.00;;;15.60;99.90;;;;;;5143758;27;20045;-67
2023/07/03 05:15:54;;;;;;;0.13;0.13;;;15.60;99.90;;;;;;5150026;27;20039;-67
2023/07/03 05:18:20;;;;;;;0.00;0.00;;;15.70;99.90;;;;;;5149218;27;20774;-67
2023/07/03 05:20:48;;;;;;;0.10;0.10;;;15.80;99.90;;;;;;5142596;27;20035;-68
2023/07/03 05:23:15;;;;;;;0.10;0.10;;;15.80;99.90;;;;;;5150297;27;20074;-67
2023/07/03 05:25:42;;;;;;;0.00;0.00;;;15.80;99.90;;;;;;5140459;27;20034;-67
2023/07/03 05:28:07;;;;;;;0.35;0.35;;;15.80;99.90;;;;;;5147498;27;20516;-67
2023/07/03 05:30:34;;;;;;;0.47;0.47;;;16.00;99.90;;;;;;5141239;27;20036;-67
2023/07/03 05:33:00;;;;;;;0.00;0.00;;;16.00;99.90;;;;;;5146578;27;20047;-67
2023/07/03 05:35:26;;;;;;;0.38;0.38;;;16.10;99.90;;;;;;5139227;27;20082;-67
2023/07/03 05:37:51;;;;;;;0.25;0.15;;;16.10;99.90;;;;;;5148103;27;20065;-67
2023/07/03 05:40:18;;;;;;;0.28;0.28;;;16.30;99.90;;;;;;5152137;27;20039;-67
2023/07/03 05:42:43;;;;;;;0.03;0.03;;;16.40;99.90;;;;;;5129500;27;20075;-67
2023/07/03 05:45:09;;;;;;;0.20;0.20;;;16.40;99.90;;;;;;5144205;27;20103;-67
2023/07/03 05:47:35;;;;;;;0.08;0.08;;;16.50;99.90;;;;;;5147839;27;20058;-67
2023/07/03 05:50:01;;;;;;;0.17;0.17;;;16.40;99.90;;;;;;5144899;27;20417;-67
2023/07/03 05:52:27;;;;;;;0.03;0.03;;;16.20;99.90;;;;;;5125041;27;20066;-67
2023/07/03 05:54:53;;;;;;;0.10;0.10;;;16.20;99.90;;;;;;5145715;27;20401;-67
2023/07/03 05:57:18;;;;;;;0.10;0.10;;;16.10;99.90;;;;;;5140992;27;20047;-67
2023/07/03 05:59:44;;;;;;;0.00;0.00;;;16.10;99.90;;;;;;5146775;27;20043;-67
2023/07/03 06:02:13;;;;;;;0.35;0.35;;;16.00;99.90;;;;;;5138123;27;20099;-67
2023/07/03 06:04:38;;;;;;;0.10;0.10;;;16.00;99.90;;;;;;5129626;27;20117;-67
2023/07/03 06:07:05;;;;;;;0.00;0.00;;;16.10;99.90;;;;;;5142589;27;20470;-67
2023/07/03 06:09:31;;;;;;;0.00;0.00;;;16.10;99.90;;;;;;5142549;27;20608;-66
2023/07/03 06:11:56;;;;;;;0.15;0.15;;;16.00;99.90;;;;;;5128377;27;20421;-67
2023/07/03 06:14:23;;;;;;;0.10;0.10;;;16.00;99.90;;;;;;5138632;27;20039;-67
2023/07/03 06:16:50;;;;;;;7.40;1.25;;;15.90;99.90;;;;;;5146926;27;20051;-67
2023/07/03 06:19:17;;;;;;;0.10;0.10;;;16.00;99.90;;;;;;5139331;27;20047;-67
2023/07/03 06:21:43;;;;;;;0.00;0.00;;;15.90;99.90;;;;;;5128187;27;20043;-67
2023/07/03 06:24:10;;;;;;;0.00;0.00;;;15.90;99.90;;;;;;5151718;27;20087;-67
2023/07/03 06:26:38;;;;;;;0.10;0.10;;;15.90;99.90;;;;;;5147823;27;20790;-67
2023/07/03 06:29:05;;;;;;;0.00;0.00;;;16.00;99.90;;;;;;5141483;27;20427;-67
2023/07/03 06:31:31;;;;;;;0.00;0.00;;;16.10;99.90;;;;;;5148048;27;20085;-67
2023/07/03 06:33:57;;;;;;;0.10;0.10;;;16.10;99.90;;;;;;5140514;27;20051;-67
2023/07/03 06:36:23;;;;;;;0.30;0.30;;;16.10;99.90;;;;;;5145955;27;20073;-67
2023/07/03 06:38:56;;;;;;;0.10;0.10;;;16.10;99.90;;;;;;5145775;27;20074;-66
2023/07/03 06:41:25;;;;;;;0.00;0.00;;;16.20;99.90;;;;;;5147304;27;20473;-67
2023/07/03 06:43:51;;;;;;;0.00;0.00;;;16.30;99.90;;;;;;5143569;27;20042;-67
2023/07/03 06:46:17;;;;;;;0.00;0.00;;;16.40;99.90;;;;;;5150860;27;20557;-67
2023/07/03 06:48:43;;;;;;;0.00;0.00;;;16.50;99.90;;;;;;5132609;27;20074;-67
2023/07/03 06:51:10;;;;;;;0.10;0.10;;;16.60;99.90;;;;;;5146685;27;20121;-67
2023/07/03 06:53:36;;;;;;;0.10;0.10;;;16.70;99.90;;;;;;5136185;27;20055;-67
2023/07/03 06:56:03;;;;;;;0.00;0.00;;;16.70;99.90;;;;;;5141061;27;20126;-67
2023/07/03 06:58:30;;;;;;;0.17;0.17;;;16.60;99.90;;;;;;5124701;27;20397;-67
2023/07/03 07:00:56;;;;;;;0.00;0.00;;;16.60;99.90;;;;;;5124671;27;20046;-67
2023/07/03 07:03:22;;;;;;;0.35;0.32;;;16.70;99.90;;;;;;5141535;27;20083;-67
2023/07/03 07:05:48;;;;;;;5.72;2.22;;;16.70;99.90;;;;;;5148681;27;20042;-67
2023/07/03 07:08:16;;;;;;;1.17;0.47;;;16.70;99.90;;;;;;5122834;27;20057;-67
2023/07/03 07:10:45;;;;;;;0.00;0.00;;;16.60;99.90;;;;;;5150732;27;20505;-67
2023/07/03 07:13:12;;;;;;;0.00;0.00;;;16.60;99.90;;;;;;5149878;27;20050;-67
2023/07/03 07:15:40;;;;;;;0.20;0.20;;;16.60;99.90;;;;;;5122952;27;20040;-67
2023/07/03 07:18:07;;;;;;;0.00;0.00;;;16.70;99.90;;;;;;5145317;27;21152;-67
2023/07/03 07:20:40;;;;;;;0.00;0.00;;;16.80;99.90;;;;;;5141467;27;20429;-67
2023/07/03 07:23:09;;;;;;;0.00;0.00;;;16.90;99.90;;;;;;5124162;27;20040;-67
2023/07/03 07:25:35;;;;;;;0.32;0.32;;;17.00;99.90;;;;;;5140494;27;20436;-67
2023/07/03 07:28:01;;;;;;;0.00;0.00;;;17.00;99.90;;;;;;5143767;27;20045;-67
2023/07/03 07:30:27;;;;;;;0.90;0.88;;;17.10;99.90;;;;;;5143149;27;20043;-67
2023/07/03 07:32:53;;;;;;;3.83;1.05;;;17.20;99.90;;;;;;5121173;27;20553;-67
2023/07/03 07:35:18;;;;;;;0.35;0.35;;;17.20;99.90;;;;;;5129066;27;20039;-67
2023/07/03 07:37:44;;;;;;;0.32;0.32;;;17.10;99.90;;;;;;5147170;27;20039;-66
2023/07/03 07:40:10;;;;;;;0.00;0.00;;;17.20;99.90;;;;;;5147140;27;20039;-67
2023/07/03 07:42:37;;;;;;;0.00;0.00;;;17.20;99.90;;;;;;5150041;27;20045;-66
2023/07/03 07:45:03;;;;;;;0.00;0.00;;;17.30;99.90;;;;;;5142823;27;20039;-67
2023/07/03 07:47:30;;;;;;;0.10;0.10;;;17.30;99.90;;;;;;5149207;27;20443;-67
2023/07/03 07:49:56;;;;;;;0.10;0.10;;;17.20;99.90;;;;;;5150140;27;20034;-67
2023/07/03 07:52:23;;;;;;;0.00;0.00;;;17.30;99.90;;;;;;5141660;27;20973;-67
2023/07/03 07:54:57;;;;;;;0.00;0.00;;;17.30;99.90;;;;;;5149740;27;20481;-67
2023/07/03 07:57:23;;;;;;;;;;;17.40;99.90;;;;;;5150319;27;20079;-67
2023/07/03 07:59:48;;;;;;;18.92;0.65;;;17.40;99.90;;;;;;5147188;27;19923;-67
2023/07/03 08:02:14;;;;;;;0.20;0.20;;;17.40;99.90;;;;;;5141001;27;20386;-67
2023/07/03 08:04:39;;;;;;;0.00;0.00;;;17.60;99.90;;;;;;5142173;27;20449;-67
2023/07/03 08:07:05;;;;;;;0.00;0.00;;;17.70;99.90;;;;;;5145344;27;20046;-67
2023/07/03 08:09:31;;;;;;;0.00;0.00;;;17.70;99.90;;;;;;5145256;27;20039;-66
2023/07/03 08:11:56;;;;;;;0.00;0.00;;;17.80;99.90;;;;;;5147292;27;20050;-67
2023/07/03 08:14:22;;;;;;;0.00;0.00;;;17.80;99.90;;;;;;5132251;27;20046;-67
2023/07/03 08:16:48;;;;;;;0.40;0.40;;;17.80;99.90;;;;;;5142818;27;20035;-67
2023/07/03 08:19:13;;;;;;;0.00;0.00;;;17.70;99.90;;;;;;5138097;27;20047;-67
2023/07/03 08:21:39;;;;;;;0.10;0.10;;;17.60;99.90;;;;;;5147416;27;20043;-67
2023/07/03 08:24:05;;;;;;;0.10;0.10;;;17.60;99.90;;;;;;5149840;27;20041;-67
2023/07/03 08:26:31;;;;;;;0.20;0.20;;;17.70;99.90;;;;;;5126081;27;20038;-67
2023/07/03 08:28:57;;;;;;;0.10;0.10;;;17.70;99.90;;;;;;5136948;27;20052;-66
2023/07/03 08:31:23;;;;;;;0.00;0.00;;;17.60;99.90;;;;;;5137560;27;20623;-66
2023/07/03 08:33:48;;;;;;;0.00;0.00;;;17.60;99.90;;;;;;5138465;27;20043;-67
2023/07/03 08:36:14;;;;;;;0.10;0.10;;;17.60;99.90;;;;;;5137729;27;20039;-67
2023/07/03 08:38:40;;;;;;;0.10;0.10;;;17.50;99.90;;;;;;5142283;27;20043;-67
2023/07/03 08:41:08;;;;;;;0.00;0.00;;;17.50;99.90;;;;;;5150900;27;20030;-67
2023/07/03 08:43:39;;;;;;;0.28;0.28;;;17.60;99.90;;;;;;5152238;27;20474;-67
2023/07/03 08:46:10;;;;;;;0.00;0.00;;;17.70;99.90;;;;;;5138407;27;20102;-67
2023/07/03 08:48:36;;;;;;;1.17;0.43;;;17.90;99.90;;;;;;5152462;27;20122;-66
2023/07/03 08:51:04;;;;;;;0.00;0.00;;;18.00;99.90;;;;;;5146148;27;20043;-66
2023/07/03 08:53:43;;;;;;;0.08;0.08;;;18.10;99.90;;;;;;5123832;27;20043;-67
2023/07/03 08:56:20;;;;;;;0.00;0.00;;;18.10;99.90;;;;;;5147684;27;20031;-67
2023/07/03 08:58:49;;;;;;;0.00;0.00;;;18.10;99.90;;;;;;5150354;27;20258;-68
2023/07/03 09:01:39;;;;;;;0.17;0.17;;;18.20;99.90;;;;;;5141015;27;20039;-67
2023/07/03 09:04:42;;;;;;;0.00;0.00;;;18.40;99.90;;;;;;5151574;27;20078;-67
2023/07/03 09:07:15;;;;;;;0.00;0.00;;;18.40;99.90;;;;;;5151337;27;20050;-67
2023/07/03 09:10:15;;;;;;;0.20;0.20;;;18.40;99.90;;;;;;5143564;27;20042;-67
2023/07/03 09:13:14;;;;;;;0.10;0.10;;;18.30;99.90;;;;;;5141225;27;20043;-67
2023/07/03 09:16:00;;;;;;;0.00;0.00;;;18.40;99.90;;;;;;5096936;27;20576;-67
2023/07/03 09:18:34;;;;;;;0.22;0.20;;;18.30;99.90;;;;;;5141723;27;20760;-67
2023/07/03 09:21:00;;;;;;;0.40;0.40;;;18.30;99.90;;;;;;5149447;27;20091;-68
2023/07/03 09:23:36;;;;;;;0.00;0.00;;;18.20;99.90;;;;;;5152847;27;20125;-67
2023/07/03 09:26:07;;;;;;;0.00;0.00;;;18.10;99.90;;;;;;5124597;27;20046;-67
2023/07/03 09:28:37;;;;;;;0.10;0.10;;;18.10;99.90;;;;;;5149178;27;20046;-66
2023/07/03 09:31:02;;;;;;;0.10;0.10;;;18.20;99.90;;;;;;5151286;27;20099;-66
2023/07/03 09:33:28;;;;;;;0.10;0.10;;;18.20;99.90;;;;;;5147190;27;20864;-66
2023/07/03 09:35:54;;;;;;;0.70;0.22;;;18.10;99.90;;;;;;5127391;27;20046;-66
2023/07/03 09:38:22;;;;;;;0.00;0.00;;;18.20;99.90;;;;;;5152264;27;20031;-66
2023/07/03 09:40:50;;;;;;;0.10;0.10;;;18.30;99.90;;;;;;5148773;27;20383;-66
2023/07/03 09:43:29;;;;;;;0.00;0.00;;;18.30;99.90;;;;;;5142902;27;20090;-66
2023/07/03 09:46:08;;;;;;;0.00;0.00;;;18.30;99.90;;;;;;5131227;27;20103;-67
2023/07/03 09:48:35;;;;;;;0.13;0.13;;;18.40;99.90;;;;;;5151126;27;20128;-67
2023/07/03 09:51:24;;;;;;;0.00;0.00;;;18.20;99.90;;;;;;5145857;27;20031;-67
2023/07/03 09:53:50;;;;;;;0.10;0.10;;;18.20;99.90;;;;;;5147970;27;20073;-67
2023/07/03 09:56:20;;;;;;;0.30;0.30;;;18.10;99.90;;;;;;5140755;27;20042;-66
2023/07/03 09:58:50;;;;;;;0.15;0.15;;;18.00;99.90;;;;;;5143733;27;20425;-66
2023/07/03 10:01:28;;;;;;;0.08;0.08;;;18.00;99.90;;;;;;5130235;27;20054;-67
2023/07/03 10:04:06;;;;;;;0.10;0.10;;;17.90;99.90;;;;;;5137466;27;20046;-67
2023/07/03 10:06:32;;;;;;;0.17;0.17;;;17.90;99.90;;;;;;5140642;27;20115;-67
2023/07/03 10:09:04;;;;;;;0.00;0.00;;;17.80;99.90;;;;;;5148369;27;20045;-67
2023/07/03 10:11:34;;;;;;;0.03;0.03;;;17.90;99.90;;;;;;5138431;27;20043;-67
2023/07/03 10:14:00;;;;;;;0.52;0.52;;;17.90;99.90;;;;;;5141206;27;20103;-66
2023/07/03 10:16:26;;;;;;;0.10;0.10;;;18.00;99.90;;;;;;5146683;27;20043;-66
2023/07/03 10:18:55;;;;;;;3.92;1.35;;;18.10;99.90;;;;;;5151110;27;20049;-66
2023/07/03 10:21:22;;;;;;;0.00;0.00;;;18.50;99.90;;;;;;5147149;27;20479;-66
2023/07/03 10:23:49;;;;;;;0.03;0.03;;;18.90;99.90;;;;;;5147513;27;20054;-66
2023/07/03 10:26:20;;;;;;;0.30;0.30;;;18.90;99.90;;;;;;5146542;27;20486;-66
2023/07/03 10:28:55;;;;;;;0.00;0.00;;;18.80;99.90;;;;;;5145687;27;20158;-67
2023/07/03 10:31:36;;;;;;;0.00;0.00;;;18.60;99.90;;;;;;5144128;27;20439;-67
2023/07/03 10:34:10;;;;;;;0.13;0.13;;;18.50;99.90;;;;;;5140265;27;20114;-65
2023/07/03 10:36:39;;;;;;;0.00;0.00;;;18.40;99.90;;;;;;5121292;27;20053;-66
2023/07/03 10:39:08;;;;;;;0.10;0.10;;;18.50;99.90;;;;;;5141359;27;20125;-66
2023/07/03 10:41:43;;;;;;;0.10;0.10;;;18.60;99.90;;;;;;5145276;27;20050;-67
2023/07/03 10:44:18;;;;;;;0.00;0.00;;;19.10;99.90;;;;;;5128672;27;20118;-67
2023/07/03 10:46:58;;;;;;;0.10;0.10;;;19.20;99.90;;;;;;5124229;27;20168;-67
2023/07/03 10:49:30;;;;;;;0.00;0.00;;;19.00;99.90;;;;;;5151022;27;20058;-67
2023/07/03 10:52:01;;;;;;;0.00;0.00;;;18.80;99.90;;;;;;5144353;27;20050;-67
2023/07/03 10:54:37;;;;;;;0.20;0.20;;;18.90;99.90;;;;;;5149724;27;20039;-67
2023/07/03 10:57:07;;;;;;;0.00;0.00;;;19.00;99.90;;;;;;5144423;27;20042;-67
2023/07/03 10:59:41;;;;;;;1.15;0.15;;;19.00;99.90;;;;;;5129082;27;20054;-67
2023/07/03 11:02:32;;;;;;;0.00;0.00;;;19.00;99.90;;;;;;5150622;27;20042;-67
2023/07/03 11:05:20;;;;;;;1.38;1.27;;;18.80;99.90;;;;;;5141814;27;20039;-67
2023/07/03 11:08:03;;;;;;;0.00;0.00;;;19.10;99.90;;;;;;5127459;27;20050;-66
2023/07/03 11:10:53;;;;;;;0.00;0.00;;;19.10;99.90;;;;;;5144222;27;20053;-66
2023/07/03 11:13:49;;;;;;;0.75;0.22;;;18.90;99.90;;;;;;5125417;27;20051;-66
2023/07/03 11:16:16;;;;;;;0.00;0.00;;;19.00;99.90;;;;;;5147543;27;20082;-66
2023/07/03 11:18:48;;;;;;;1.65;1.27;;;18.90;99.90;;;;;;5145953;27;20046;-67
2023/07/03 11:21:36;;;;;;;0.47;0.47;;;19.20;99.90;;;;;;5139827;27;20052;-66
2023/07/03 11:24:24;;;;;;;0.00;0.00;;;19.00;99.90;;;;;;5140447;27;20045;-66
2023/07/03 11:27:35;;;;;;;0.30;0.25;;;18.90;99.90;;;;;;5126748;27;20137;-67
2023/07/03 11:30:02;;;;;;;0.00;0.00;;;18.70;99.90;;;;;;5142628;27;20042;-66
2023/07/03 11:32:30;;;;;;;0.00;0.00;;;18.70;99.90;;;;;;5145709;27;20047;-66
2023/07/03 11:34:56;;;;;;;0.30;0.30;;;19.20;99.90;;;;;;5149548;27;20066;-66
2023/07/03 11:37:35;;;;;;;1.65;0.85;;;19.50;99.90;;;;;;5136817;27;20039;-66
2023/07/03 11:40:24;;;;;;;0.28;0.28;;;19.50;99.90;;;;;;5147788;27;20094;-66
2023/07/03 11:43:08;;;;;;;0.00;0.00;;;19.40;99.90;;;;;;5142110;27;20103;-66
2023/07/03 11:45:36;;;;;;;0.00;0.00;;;19.50;99.90;;;;;;5142627;27;20031;-65
2023/07/03 11:48:02;;;;;;;0.00;0.00;;;19.40;99.90;;;;;;5149977;27;20039;-66
2023/07/03 11:50:33;;;;;;;0.22;0.17;;;19.30;99.90;;;;;;5145523;27;20046;-66
2023/07/03 11:53:01;;;;;;;0.10;0.10;;;19.20;99.90;;;;;;5139246;27;20118;-65
2023/07/03 11:55:37;;;;;;;0.00;0.00;;;19.10;99.90;;;;;;5138659;27;20042;-66
2023/07/03 11:58:03;;;;;;;0.03;0.03;;;19.20;99.90;;;;;;5147365;27;20039;-66
2023/07/03 12:00:31;;;;;;;0.30;0.30;;;19.10;99.90;;;;;;5147678;27;20060;-66
2023/07/03 12:03:06;;;;;;;0.70;0.70;;;19.10;99.90;;;;;;5149869;27;20134;-66
2023/07/03 12:05:47;;;;;;;0.00;0.00;;;19.10;99.90;;;;;;5120521;27;20050;-66
2023/07/03 12:08:36;;;;;;;0.08;0.08;;;19.10;99.90;;;;;;5140287;27;20493;-66
2023/07/03 12:11:03;;;;;;;0.25;0.25;;;19.20;99.90;;;;;;5134777;27;20122;-66
2023/07/03 12:13:43;;;;;;;0.10;0.10;;;19.70;99.90;;;;;;5121555;27;20042;-66
2023/07/03 12:16:31;;;;;;;0.47;0.35;;;20.00;99.90;;;;;;5115772;27;20074;-66
2023/07/03 12:19:01;;;;;;;0.10;0.10;;;20.20;99.90;;;;;;5149016;27;20270;-65
2023/07/03 12:21:34;;;;;;;0.93;0.85;;;20.60;99.90;;;;;;5142883;27;20508;-66
2023/07/03 12:24:00;;;;;;;0.00;0.00;;;20.70;99.90;;;;;;5122445;27;20054;-66
2023/07/03 12:26:26;;;;;;;0.00;0.00;;;21.10;99.90;;;;;;5144104;27;20054;-66
2023/07/03 12:29:04;;;;;;;0.25;0.20;;;21.30;99.90;;;;;;5147048;27;20446;-66
2023/07/03 12:31:30;;;;;;;0.17;0.17;;;21.10;99.90;;;;;;5143635;27;20527;-66
2023/07/03 12:33:58;;;;;;;0.00;0.00;;;21.30;99.90;;;;;;5140707;27;20071;-66
2023/07/03 12:36:25;;;;;;;1.88;0.75;;;21.30;99.90;;;;;;5141987;27;20469;-66
2023/07/03 12:38:51;;;;;;;0.00;0.00;;;21.30;99.90;;;;;;5141214;27;20043;-66
2023/07/03 12:41:26;;;;;;;0.68;0.68;;;21.80;99.90;;;;;;5147378;27;20106;-66
2023/07/03 12:43:52;;;;;;;0.43;0.43;;;21.90;99.90;;;;;;5144772;27;20598;-66
2023/07/03 12:46:34;;;;;;;0.00;0.00;;;22.40;99.90;;;;;;5145700;27;20070;-66
2023/07/03 12:49:07;;;;;;;0.00;0.00;;;22.30;99.10;;;;;;5145390;27;20047;-67
2023/07/03 12:51:49;;;;;;;6.93;1.55;;;22.40;99.40;;;;;;5146093;27;20051;-66
2023/07/03 12:54:15;;;;;;;0.30;0.30;;;22.50;98.60;;;;;;5142982;27;20058;-66
2023/07/03 12:56:43;;;;;;;1.48;0.43;;;22.70;99.90;;;;;;5146957;27;20031;-66
2023/07/03 12:59:11;;;;;;;1.33;0.63;;;22.30;99.00;;;;;;5126726;27;20045;-66